Time;durP1;ratioP1;P1;durP2;ratioP2;P2;SDS_P1;SDS_P2;PMS_P1;PMS_P2;Temp;Humidity;BMP_temperature;BMP_pressure;BME280_temperature;BME280_humidity;BME280_pressure;Samples;Min_cycle;Max_cycle;Signal;HPM_P1;HPM_P2
2021/12/27 00:00:19;;;;;;;23.60;14.53;;;1.80;1.00;;;;;;5082866;28;20218;-60
2021/12/27 00:02:49;;;;;;;21.57;14.07;;;1.90;1.00;;;;;;5078539;28;20799;-59
2021/12/27 00:05:16;;;;;;;24.77;15.83;;;1.90;1.20;;;;;;5080911;28;20211;-59
2021/12/27 00:07:49;;;;;;;25.17;15.70;;;1.90;7.40;;;;;;5080707;28;20287;-60
2021/12/27 00:10:19;;;;;;;21.80;14.70;;;1.90;23.00;;;;;;5082103;28;20549;-59
2021/12/27 00:12:46;;;;;;;26.27;15.20;;;1.90;24.80;;;;;;5083146;28;20224;-60
2021/12/27 00:15:13;;;;;;;21.83;14.33;;;1.90;46.70;;;;;;5083111;28;20290;-60
2021/12/27 00:17:42;;;;;;;20.17;14.77;;;1.90;89.20;;;;;;5083010;27;20202;-60
2021/12/27 00:20:12;;;;;;;24.03;15.23;;;1.90;98.40;;;;;;5082168;28;21084;-58
2021/12/27 00:22:39;;;;;;;24.37;14.93;;;2.00;99.90;;;;;;5081492;28;20198;-58
2021/12/27 00:25:07;;;;;;;25.50;15.47;;;1.90;99.90;;;;;;5081962;28;20224;-60
2021/12/27 00:27:34;;;;;;;22.50;14.40;;;1.90;99.90;;;;;;5082769;28;20195;-60
2021/12/27 00:30:03;;;;;;;26.23;15.93;;;2.00;99.90;;;;;;5081123;28;20269;-58
2021/12/27 00:32:30;;;;;;;22.50;13.93;;;2.00;99.90;;;;;;5080319;28;20213;-58
2021/12/27 00:34:57;;;;;;;22.93;14.50;;;2.00;99.90;;;;;;5083198;28;20198;-58
2021/12/27 00:37:24;;;;;;;22.43;14.57;;;2.00;99.90;;;;;;5081027;28;20225;-59
2021/12/27 00:39:51;;;;;;;21.93;13.87;;;2.00;99.90;;;;;;5081857;28;21146;-59
2021/12/27 00:42:18;;;;;;;22.67;15.13;;;2.00;99.90;;;;;;5084572;28;20209;-59
2021/12/27 00:44:45;;;;;;;23.83;14.77;;;1.90;99.90;;;;;;5091313;28;20259;-59
2021/12/27 00:47:12;;;;;;;26.17;14.87;;;2.00;99.90;;;;;;5080101;28;20194;-59
2021/12/27 00:49:39;;;;;;;25.33;15.30;;;2.00;99.90;;;;;;5078425;28;20197;-59
2021/12/27 00:52:06;;;;;;;25.33;16.00;;;2.00;99.90;;;;;;5081387;28;20283;-59
2021/12/27 00:54:34;;;;;;;23.57;15.30;;;2.00;99.90;;;;;;5082585;28;20205;-60
2021/12/27 00:57:01;;;;;;;24.60;14.93;;;2.00;99.90;;;;;;5096866;28;20251;-59
2021/12/27 00:59:28;;;;;;;23.83;15.10;;;2.00;99.90;;;;;;5080367;28;20228;-59
2021/12/27 01:01:56;;;;;;;25.57;15.27;;;1.90;99.90;;;;;;5081907;28;20209;-58
2021/12/27 01:04:24;;;;;;;27.60;15.80;;;2.00;99.90;;;;;;5081571;28;20288;-59
2021/12/27 01:06:51;;;;;;;24.30;15.17;;;2.00;99.90;;;;;;5080978;28;20218;-59
2021/12/27 01:09:35;;;;;;;24.00;14.70;;;2.00;99.90;;;;;;5082760;28;20229;-59
2021/12/27 01:15:08;;;;;;;23.53;14.73;;;2.00;99.90;;;;;;5081664;28;20194;-59
2021/12/27 01:17:37;;;;;;;25.00;14.43;;;2.00;99.90;;;;;;5081150;28;20198;-59
2021/12/27 01:20:11;;;;;;;24.80;15.77;;;2.00;99.90;;;;;;5082419;28;20274;-59
2021/12/27 01:22:39;;;;;;;26.60;15.07;;;2.00;99.90;;;;;;5083909;28;20554;-59
2021/12/27 01:25:07;;;;;;;24.77;15.53;;;2.00;99.90;;;;;;5078985;28;20267;-59
2021/12/27 01:27:35;;;;;;;30.27;16.10;;;2.00;99.90;;;;;;5081417;28;20198;-59
2021/12/27 01:30:05;;;;;;;23.50;15.03;;;2.00;99.90;;;;;;5081603;28;20226;-59
2021/12/27 01:32:38;;;;;;;23.70;15.20;;;2.10;99.90;;;;;;5082571;28;20275;-59
2021/12/27 01:35:06;;;;;;;24.30;15.30;;;2.00;99.90;;;;;;5081521;28;20232;-60
2021/12/27 01:37:33;;;;;;;22.60;14.93;;;2.10;99.90;;;;;;5083456;28;20284;-59
2021/12/27 01:40:00;;;;;;;24.73;14.70;;;2.10;99.90;;;;;;5080969;28;20755;-58
2021/12/27 01:42:27;;;;;;;23.80;14.70;;;2.10;99.90;;;;;;5082938;28;21187;-59
2021/12/27 01:44:55;;;;;;;24.57;14.93;;;2.10;1.00;;;;;;5079638;28;20277;-59
2021/12/27 01:47:22;;;;;;;23.93;14.97;;;2.10;1.00;;;;;;5096701;28;20673;-59
2021/12/27 01:49:49;;;;;;;23.23;15.13;;;2.10;1.00;;;;;;5078834;28;20657;-59
2021/12/27 01:52:16;;;;;;;23.10;14.70;;;2.10;1.00;;;;;;5080679;28;20642;-60
2021/12/27 01:54:43;;;;;;;25.07;14.67;;;2.10;1.00;;;;;;5082241;28;20224;-59
2021/12/27 01:57:12;;;;;;;23.60;14.53;;;2.10;1.00;;;;;;5102555;28;20865;-58
2021/12/27 01:59:39;;;;;;;23.57;14.00;;;2.20;1.00;;;;;;5085380;28;20244;-58
2021/12/27 02:02:06;;;;;;;24.60;14.40;;;2.10;1.00;;;;;;5084876;28;20688;-58
2021/12/27 02:04:33;;;;;;;22.27;14.27;;;2.10;1.00;;;;;;5085395;28;20213;-58
2021/12/27 02:07:00;;;;;;;27.67;15.63;;;2.10;1.00;;;;;;5095260;28;20255;-58
2021/12/27 02:09:39;;;;;;;21.27;14.10;;;2.10;1.00;;;;;;5085748;28;20285;-58
2021/12/27 02:12:06;;;;;;;24.73;14.67;;;2.10;1.00;;;;;;5084658;28;20645;-59
2021/12/27 02:14:33;;;;;;;24.60;15.53;;;2.00;1.00;;;;;;5085043;28;20676;-59
2021/12/27 02:17:00;;;;;;;23.00;14.80;;;2.00;1.00;;;;;;5083512;28;20201;-59
2021/12/27 02:19:27;;;;;;;22.23;14.23;;;2.00;1.00;;;;;;5092849;28;20210;-58
2021/12/27 02:21:57;;;;;;;23.03;15.23;;;2.00;1.00;;;;;;5085572;28;20218;-59
2021/12/27 02:24:24;;;;;;;23.63;14.87;;;2.10;1.00;;;;;;5102293;28;20222;-58
2021/12/27 02:26:51;;;;;;;25.07;15.40;;;2.10;1.00;;;;;;5087379;28;20186;-59
2021/12/27 02:29:18;;;;;;;23.33;14.53;;;2.10;1.00;;;;;;5094444;28;20658;-58
2021/12/27 02:31:47;;;;;;;23.57;14.33;;;2.10;1.00;;;;;;5086660;28;20244;-58
2021/12/27 02:34:15;;;;;;;22.37;13.97;;;2.10;1.00;;;;;;5086175;28;20198;-58
2021/12/27 02:36:42;;;;;;;22.57;14.57;;;2.10;1.00;;;;;;5085284;28;20699;-58
2021/12/27 02:39:09;;;;;;;23.13;14.40;;;2.00;1.00;;;;;;5089063;28;20198;-57
2021/12/27 02:41:36;;;;;;;24.23;14.67;;;2.10;1.00;;;;;;5088664;28;20187;-57
2021/12/27 02:44:03;;;;;;;21.50;13.87;;;2.10;1.00;;;;;;5087970;28;20642;-58
2021/12/27 02:46:31;;;;;;;23.77;15.40;;;2.10;1.00;;;;;;5089349;28;20249;-59
2021/12/27 02:48:58;;;;;;;24.83;14.33;;;2.10;1.00;;;;;;5089491;28;20244;-59
2021/12/27 02:51:29;;;;;;;22.23;14.00;;;2.10;1.00;;;;;;5096251;28;20237;-58
2021/12/27 02:53:56;;;;;;;26.03;14.53;;;2.20;1.00;;;;;;5093034;28;20217;-57
2021/12/27 02:56:23;;;;;;;23.67;15.47;;;2.20;1.00;;;;;;5091744;28;20202;-58
2021/12/27 02:58:50;;;;;;;24.77;14.83;;;2.10;1.00;;;;;;5089917;28;20558;-58
2021/12/27 03:01:23;;;;;;;26.30;14.90;;;2.20;1.00;;;;;;5091408;28;20604;-57
2021/12/27 03:03:53;;;;;;;24.07;14.30;;;2.10;1.00;;;;;;5092132;28;20222;-59
2021/12/27 03:06:20;;;;;;;21.83;14.50;;;2.20;1.00;;;;;;5086458;28;20743;-58
2021/12/27 03:08:49;;;;;;;25.57;14.47;;;2.20;2.10;;;;;;5085886;28;20251;-57
2021/12/27 03:11:17;;;;;;;20.30;13.47;;;2.20;18.70;;;;;;5091947;28;20213;-57
2021/12/27 03:13:52;;;;;;;22.17;14.50;;;2.20;46.00;;;;;;5071672;28;20200;-59
2021/12/27 03:16:20;;;;;;;22.83;13.83;;;2.20;39.00;;;;;;5089998;28;20193;-58
2021/12/27 03:18:50;;;;;;;24.10;14.73;;;2.20;66.80;;;;;;5092721;28;20209;-57
2021/12/27 03:21:18;;;;;;;23.40;14.37;;;2.30;94.80;;;;;;5084171;28;20218;-58
2021/12/27 03:23:47;;;;;;;24.27;14.33;;;2.30;99.90;;;;;;5084946;28;20198;-57
2021/12/27 03:26:15;;;;;;;25.97;14.37;;;2.30;99.90;;;;;;5082334;28;20787;-57
2021/12/27 03:28:42;;;;;;;21.83;12.73;;;2.30;99.90;;;;;;5085417;28;20206;-57
2021/12/27 03:31:15;;;;;;;23.57;14.17;;;2.30;99.90;;;;;;5084232;28;20222;-58
2021/12/27 03:33:42;;;;;;;21.17;12.83;;;2.40;99.90;;;;;;5064128;28;20195;-57
2021/12/27 03:36:12;;;;;;;19.73;13.20;;;2.40;99.90;;;;;;5083076;28;20190;-56
2021/12/27 03:38:52;;;;;;;22.23;13.00;;;2.40;99.90;;;;;;5084694;28;20214;-57
2021/12/27 03:41:22;;;;;;;20.80;13.30;;;2.40;99.90;;;;;;5079618;28;20205;-57
2021/12/27 03:43:50;;;;;;;21.03;13.37;;;2.30;99.90;;;;;;5086116;28;20252;-57
2021/12/27 03:46:17;;;;;;;20.90;12.90;;;2.40;99.90;;;;;;5083062;28;20219;-58
2021/12/27 03:48:44;;;;;;;22.07;13.23;;;2.40;99.90;;;;;;5085657;28;20186;-58
2021/12/27 03:51:11;;;;;;;20.97;13.30;;;2.40;99.90;;;;;;5084393;28;20198;-56
2021/12/27 03:53:46;;;;;;;20.67;13.40;;;2.40;99.90;;;;;;5092867;28;20248;-57
2021/12/27 03:56:13;;;;;;;22.33;12.77;;;2.40;99.90;;;;;;5088849;28;20190;-57
2021/12/27 03:58:54;;;;;;;22.03;13.40;;;2.40;99.90;;;;;;5092588;28;20661;-56
2021/12/27 04:01:23;;;;;;;20.83;13.87;;;2.40;99.90;;;;;;5091689;28;20285;-58
2021/12/27 04:03:54;;;;;;;19.63;12.90;;;2.40;99.90;;;;;;5088521;28;20255;-58
2021/12/27 04:06:25;;;;;;;20.07;12.93;;;2.40;99.90;;;;;;5086333;28;20230;-59
2021/12/27 04:08:52;;;;;;;20.77;13.10;;;2.40;99.90;;;;;;5083527;28;20194;-58
2021/12/27 04:11:19;;;;;;;21.70;13.53;;;2.50;99.90;;;;;;5084594;28;20194;-58
2021/12/27 04:13:46;;;;;;;20.43;14.03;;;2.40;99.90;;;;;;5102173;27;20206;-57
2021/12/27 04:16:13;;;;;;;20.00;13.90;;;2.40;99.90;;;;;;5089420;28;20202;-57
2021/12/27 04:18:41;;;;;;;24.30;13.77;;;2.50;99.90;;;;;;5091137;28;20197;-57
2021/12/27 04:21:07;;;;;;;20.83;13.60;;;2.50;99.90;;;;;;5089242;28;20628;-56
2021/12/27 04:23:37;;;;;;;22.93;13.53;;;2.50;99.90;;;;;;5088131;28;20229;-56
2021/12/27 04:26:04;;;;;;;20.07;12.73;;;2.50;99.90;;;;;;5086566;28;20268;-56
2021/12/27 04:28:31;;;;;;;21.70;13.63;;;2.50;99.90;;;;;;5090166;28;20243;-56
2021/12/27 04:30:59;;;;;;;21.10;12.97;;;2.50;99.90;;;;;;5086325;28;20229;-57
2021/12/27 04:33:26;;;;;;;21.23;12.63;;;2.50;99.90;;;;;;5098331;28;20190;-57
2021/12/27 04:35:53;;;;;;;19.97;12.23;;;2.50;99.90;;;;;;5083655;28;20221;-57
2021/12/27 04:38:20;;;;;;;20.93;13.63;;;2.60;99.90;;;;;;5082175;28;20788;-57
2021/12/27 04:40:50;;;;;;;21.97;13.23;;;2.50;99.90;;;;;;5086170;28;20217;-57
2021/12/27 04:43:19;;;;;;;21.67;13.60;;;2.60;99.90;;;;;;5082463;28;20206;-57
2021/12/27 04:45:49;;;;;;;21.13;13.40;;;2.60;99.90;;;;;;5088194;28;20573;-57
2021/12/27 04:48:17;;;;;;;21.47;12.77;;;2.60;99.90;;;;;;5082951;28;20623;-64
2021/12/27 04:50:44;;;;;;;25.83;13.27;;;2.60;99.90;;;;;;5084401;28;20193;-58
2021/12/27 04:53:11;;;;;;;22.23;13.50;;;2.60;99.90;;;;;;5081433;28;20272;-57
2021/12/27 04:55:38;;;;;;;19.80;12.70;;;2.60;99.90;;;;;;5081617;28;20198;-58
2021/12/27 04:58:09;;;;;;;20.40;13.27;;;2.60;99.90;;;;;;5081767;28;20629;-60
2021/12/27 05:00:38;;;;;;;24.07;12.40;;;2.60;99.90;;;;;;5082573;28;20190;-59
2021/12/27 05:03:06;;;;;;;24.00;13.47;;;2.60;99.90;;;;;;5084196;28;20237;-59
2021/12/27 05:05:33;;;;;;;22.57;14.30;;;2.50;99.90;;;;;;5083818;28;20218;-59
2021/12/27 05:08:01;;;;;;;18.80;12.90;;;2.60;99.90;;;;;;5082007;28;20183;-58
2021/12/27 05:10:29;;;;;;;21.30;13.50;;;2.60;99.90;;;;;;5080813;28;20331;-58
2021/12/27 05:12:57;;;;;;;22.10;13.23;;;2.60;99.90;;;;;;5083599;28;20218;-57
2021/12/27 05:15:24;;;;;;;20.17;13.07;;;2.60;99.90;;;;;;5068515;28;20230;-56
2021/12/27 05:17:51;;;;;;;22.40;13.27;;;2.60;99.90;;;;;;5085838;28;20202;-58
2021/12/27 05:20:18;;;;;;;20.80;13.27;;;2.60;99.90;;;;;;5083415;28;20226;-58
2021/12/27 05:22:45;;;;;;;21.47;13.47;;;2.70;99.90;;;;;;5084895;28;20202;-58
2021/12/27 05:25:14;;;;;;;22.27;12.80;;;2.70;99.90;;;;;;5101636;28;20217;-57
2021/12/27 05:27:41;;;;;;;19.77;12.47;;;2.70;99.90;;;;;;5086028;28;20269;-57
2021/12/27 05:30:17;;;;;;;21.03;13.47;;;2.70;99.90;;;;;;5081436;28;20243;-58
2021/12/27 05:32:44;;;;;;;21.27;13.03;;;2.70;99.90;;;;;;5081284;28;20187;-57
2021/12/27 05:35:13;;;;;;;18.93;12.23;;;2.70;99.90;;;;;;5094760;28;20194;-57
2021/12/27 05:37:43;;;;;;;21.37;13.43;;;2.70;99.90;;;;;;5085986;28;20689;-57
2021/12/27 05:40:18;;;;;;;20.27;13.53;;;2.70;99.90;;;;;;5087077;28;20265;-58
2021/12/27 05:42:50;;;;;;;19.53;12.17;;;2.80;1.00;;;;;;5086601;28;20190;-58
2021/12/27 05:45:17;;;;;;;18.77;12.30;;;2.80;99.90;;;;;;5085643;28;20238;-57
2021/12/27 05:47:45;;;;;;;20.00;12.43;;;2.80;99.90;;;;;;5089153;28;20562;-58
2021/12/27 05:50:13;;;;;;;20.37;12.27;;;2.70;1.00;;;;;;5086972;28;20220;-59
2021/12/27 05:52:40;;;;;;;22.13;12.40;;;2.80;1.00;;;;;;5078525;28;20331;-58
2021/12/27 05:55:09;;;;;;;17.77;11.60;;;2.80;1.00;;;;;;5086061;28;20674;-58
2021/12/27 05:57:37;;;;;;;19.43;12.77;;;2.70;1.00;;;;;;5087344;28;20277;-58
2021/12/27 06:00:07;;;;;;;20.30;12.40;;;2.80;1.00;;;;;;5084806;28;20194;-60
2021/12/27 06:02:42;;;;;;;20.10;12.40;;;2.80;1.00;;;;;;5085718;28;20245;-59
2021/12/27 06:05:10;;;;;;;20.80;12.23;;;2.80;1.00;;;;;;5086047;28;20190;-58
2021/12/27 06:07:37;;;;;;;18.73;12.13;;;2.90;1.00;;;;;;5086539;28;20232;-59
2021/12/27 06:10:05;;;;;;;19.80;11.27;;;2.90;1.00;;;;;;5088582;28;20557;-58
2021/12/27 06:12:33;;;;;;;18.93;12.63;;;2.80;1.00;;;;;;5087410;28;20280;-58
2021/12/27 06:15:00;;;;;;;15.77;11.47;;;2.90;1.00;;;;;;5084264;28;20717;-57
2021/12/27 06:17:27;;;;;;;17.70;11.57;;;2.90;1.00;;;;;;5086493;28;20558;-59
2021/12/27 06:19:55;;;;;;;17.97;11.83;;;3.00;1.00;;;;;;5085245;28;20196;-58
2021/12/27 06:22:22;;;;;;;16.63;11.50;;;3.00;1.00;;;;;;5087740;28;20245;-57
2021/12/27 06:24:49;;;;;;;18.10;11.07;;;3.00;1.00;;;;;;5082892;28;20819;-59
2021/12/27 06:27:16;;;;;;;18.37;12.03;;;3.00;99.90;;;;;;5093454;28;20399;-59
2021/12/27 06:29:43;;;;;;;17.53;11.47;;;2.90;99.90;;;;;;5086973;28;20251;-59
2021/12/27 06:32:13;;;;;;;19.20;11.50;;;2.90;99.90;;;;;;5102699;28;20226;-58
2021/12/27 06:34:40;;;;;;;16.63;11.60;;;2.90;1.00;;;;;;5091542;28;20178;-58
2021/12/27 06:37:08;;;;;;;15.87;10.13;;;2.90;1.00;;;;;;5092266;28;20217;-58
2021/12/27 06:39:35;;;;;;;19.00;12.00;;;3.00;1.00;;;;;;5083691;28;20197;-57
2021/12/27 06:42:02;;;;;;;17.60;11.40;;;2.90;1.00;;;;;;5090436;28;20189;-58
2021/12/27 06:44:29;;;;;;;17.93;11.57;;;2.90;1.00;;;;;;5082186;28;20220;-60
2021/12/27 06:46:59;;;;;;;18.20;11.33;;;2.90;1.00;;;;;;5085523;28;20302;-57
2021/12/27 06:49:27;;;;;;;19.57;11.77;;;2.90;1.00;;;;;;5091356;28;20194;-57
2021/12/27 06:51:55;;;;;;;16.03;11.70;;;3.00;1.00;;;;;;5084621;28;20635;-57
2021/12/27 06:54:22;;;;;;;16.77;11.03;;;3.00;1.00;;;;;;5083778;28;20233;-58
2021/12/27 06:56:49;;;;;;;18.37;11.47;;;3.00;1.00;;;;;;5083164;28;20197;-57
2021/12/27 06:59:16;;;;;;;16.10;10.63;;;3.00;1.00;;;;;;5083000;28;20194;-57
2021/12/27 07:01:44;;;;;;;15.77;10.60;;;3.00;1.00;;;;;;5083376;28;20247;-57
2021/12/27 07:04:11;;;;;;;15.23;10.50;;;3.00;99.90;;;;;;5099283;27;20209;-57
2021/12/27 07:06:38;;;;;;;15.73;10.47;;;3.00;99.90;;;;;;5083209;28;20763;-58
2021/12/27 07:09:06;;;;;;;17.30;10.97;;;3.00;99.90;;;;;;5080044;28;20199;-57
2021/12/27 07:11:33;;;;;;;15.73;10.67;;;3.00;1.00;;;;;;5085489;28;20202;-56
2021/12/27 07:14:00;;;;;;;16.17;9.90;;;3.00;1.00;;;;;;5081479;28;20764;-56
2021/12/27 07:16:27;;;;;;;17.27;9.77;;;2.90;1.00;;;;;;5083476;28;20568;-58
2021/12/27 07:18:54;;;;;;;15.77;9.57;;;3.00;1.00;;;;;;5079912;28;20199;-58
2021/12/27 07:21:21;;;;;;;17.63;10.23;;;3.00;1.00;;;;;;5082626;28;20318;-56
2021/12/27 07:23:52;;;;;;;15.30;10.50;;;2.90;1.00;;;;;;5080335;28;20187;-56
2021/12/27 07:26:19;;;;;;;16.23;10.37;;;2.90;1.00;;;;;;5083601;28;20260;-57
2021/12/27 07:28:50;;;;;;;15.50;10.20;;;2.90;1.00;;;;;;5083663;28;20213;-56
2021/12/27 07:31:17;;;;;;;14.30;10.00;;;2.90;1.00;;;;;;5083191;28;20253;-57
2021/12/27 07:33:44;;;;;;;15.10;10.27;;;3.00;1.00;;;;;;5080323;28;20186;-56
2021/12/27 07:36:11;;;;;;;17.00;10.57;;;3.00;1.00;;;;;;5081226;28;20190;-56
2021/12/27 07:38:42;;;;;;;16.63;10.27;;;3.00;1.00;;;;;;5080618;28;20193;-56
2021/12/27 07:41:11;;;;;;;16.40;10.27;;;2.90;1.00;;;;;;5081218;28;20806;-57
2021/12/27 07:43:38;;;;;;;17.87;10.30;;;3.00;1.00;;;;;;5083375;28;20363;-57
2021/12/27 07:46:05;;;;;;;15.17;10.27;;;3.00;1.00;;;;;;5078736;28;20237;-56
2021/12/27 07:48:32;;;;;;;14.70;10.73;;;3.00;1.00;;;;;;5081585;28;20296;-56
2021/12/27 07:50:59;;;;;;;15.03;11.20;;;3.00;1.00;;;;;;5077929;28;20226;-57
2021/12/27 07:53:25;;;;;;;16.50;12.43;;;3.00;1.00;;;;;;5080129;28;20278;-56
2021/12/27 07:55:52;;;;;;;33.90;20.10;;;3.00;1.00;;;;;;5082056;28;20601;-56
2021/12/27 07:58:19;;;;;;;36.33;22.57;;;3.00;1.00;;;;;;5084245;28;20224;-56
2021/12/27 08:00:50;;;;;;;18.17;11.67;;;3.00;1.00;;;;;;5080881;28;20849;-57
2021/12/27 08:03:19;;;;;;;19.60;11.90;;;3.00;1.00;;;;;;5080627;28;20194;-57
2021/12/27 08:05:47;;;;;;;14.60;10.07;;;3.00;1.00;;;;;;5082269;28;20255;-57
2021/12/27 08:08:14;;;;;;;17.23;10.87;;;3.00;1.00;;;;;;5081013;28;20194;-56
2021/12/27 08:10:42;;;;;;;15.53;10.27;;;3.10;1.00;;;;;;5081914;28;20844;-57
2021/12/27 08:13:09;;;;;;;14.03;9.37;;;3.10;1.00;;;;;;5081012;28;20681;-57
2021/12/27 08:15:36;;;;;;;16.03;10.23;;;3.20;1.00;;;;;;5079073;28;20276;-56
2021/12/27 08:18:03;;;;;;;15.43;10.10;;;3.10;99.90;;;;;;5078312;28;20214;-56
2021/12/27 08:20:30;;;;;;;16.37;10.50;;;3.20;99.90;;;;;;5079949;28;20210;-58
2021/12/27 08:22:57;;;;;;;17.50;10.53;;;3.20;99.90;;;;;;5082237;28;20275;-57
2021/12/27 08:25:24;;;;;;;14.27;10.17;;;3.30;99.90;;;;;;5081891;28;20297;-57
2021/12/27 08:27:51;;;;;;;13.97;9.47;;;3.30;99.90;;;;;;5094314;28;20279;-57
2021/12/27 08:32:27;;;;;;;13.67;9.70;;;3.40;99.90;;;;;;5145885;27;20845;-57
2021/12/27 08:34:54;;;;;;;13.23;9.20;;;3.50;99.90;;;;;;5109686;28;20193;-56
2021/12/27 08:37:21;;;;;;;11.03;8.60;;;3.50;99.90;;;;;;5096608;28;20197;-57
2021/12/27 08:39:48;;;;;;;15.30;9.00;;;3.60;99.90;;;;;;5088561;28;20633;-56
2021/12/27 08:42:18;;;;;;;12.73;8.40;;;3.70;99.90;;;;;;5111059;28;20560;-56
2021/12/27 08:44:45;;;;;;;11.90;8.37;;;3.80;99.90;;;;;;5115245;28;20528;-57
2021/12/27 08:47:13;;;;;;;11.80;8.23;;;3.80;28.40;;;;;;5113162;28;20190;-56
2021/12/27 08:49:41;;;;;;;13.97;8.10;;;3.80;1.00;;;;;;5107697;28;20193;-57
2021/12/27 08:52:29;;;;;;;11.53;8.50;;;3.90;1.00;;;;;;5107846;28;20193;-56
2021/12/27 08:54:58;;;;;;;11.93;7.63;;;4.00;1.00;;;;;;5089681;28;20194;-56
2021/12/27 08:57:25;;;;;;;14.13;9.70;;;4.00;1.00;;;;;;5104823;28;20193;-56
2021/12/27 08:59:52;;;;;;;15.43;10.97;;;4.00;1.00;;;;;;5106340;28;20201;-56
2021/12/27 09:02:19;;;;;;;10.77;7.80;;;4.00;1.00;;;;;;5106889;28;20636;-56
2021/12/27 09:04:46;;;;;;;11.87;8.53;;;4.10;1.00;;;;;;5107561;28;20277;-56
2021/12/27 09:07:15;;;;;;;10.23;7.57;;;4.20;1.00;;;;;;5107954;28;20224;-56
2021/12/27 09:09:44;;;;;;;12.83;8.23;;;4.30;1.00;;;;;;5107184;28;20236;-56
2021/12/27 09:12:14;;;;;;;11.80;7.87;;;4.40;1.00;;;;;;5093783;28;20225;-56
2021/12/27 09:14:43;;;;;;;9.27;7.00;;;4.50;99.90;;;;;;5088017;28;20235;-56
2021/12/27 09:17:10;;;;;;;8.80;6.43;;;4.50;99.90;;;;;;5097146;28;20281;-57
2021/12/27 09:19:37;;;;;;;11.40;6.70;;;4.60;99.90;;;;;;5108291;28;20753;-56
2021/12/27 09:22:06;;;;;;;10.17;7.47;;;4.60;99.90;;;;;;5101267;28;20210;-56
2021/12/27 09:24:35;;;;;;;11.90;7.80;;;4.80;99.90;;;;;;5099212;28;20186;-56
2021/12/27 09:27:05;;;;;;;10.50;7.10;;;4.80;81.20;;;;;;5080972;28;20197;-57
2021/12/27 09:29:34;;;;;;;9.70;7.20;;;4.90;1.00;;;;;;5097725;28;20601;-57
2021/12/27 09:32:01;;;;;;;12.00;6.60;;;5.00;1.00;;;;;;5098061;28;20247;-57
2021/12/27 09:34:28;;;;;;;7.60;6.20;;;5.10;1.00;;;;;;5100404;28;20246;-57
2021/12/27 09:36:55;;;;;;;8.73;6.50;;;5.20;1.00;;;;;;5092322;28;20236;-56
2021/12/27 09:39:22;;;;;;;8.37;6.80;;;5.20;1.00;;;;;;5076465;28;20624;-56
2021/12/27 09:41:49;;;;;;;8.73;6.60;;;5.20;1.00;;;;;;5097473;28;20672;-56
2021/12/27 09:44:16;;;;;;;7.93;6.30;;;5.30;1.00;;;;;;5082768;28;20285;-57
2021/12/27 09:46:48;;;;;;;8.73;6.93;;;5.20;1.00;;;;;;5081777;28;20683;-57
2021/12/27 09:49:17;;;;;;;8.30;5.73;;;5.30;1.00;;;;;;5082307;28;20289;-57
2021/12/27 09:51:46;;;;;;;9.77;7.50;;;5.30;1.00;;;;;;5083438;28;20263;-57
2021/12/27 09:54:16;;;;;;;12.53;7.90;;;5.30;1.00;;;;;;5084403;28;20190;-57
2021/12/27 09:56:43;;;;;;;15.60;11.77;;;5.30;1.00;;;;;;5083692;28;20271;-57
2021/12/27 09:59:10;;;;;;;16.73;11.97;;;5.40;1.00;;;;;;5065067;28;20224;-57
2021/12/27 10:01:38;;;;;;;15.50;9.60;;;5.60;1.00;;;;;;5086197;28;20886;-57
2021/12/27 10:04:05;;;;;;;15.07;8.70;;;5.80;1.00;;;;;;5083080;28;20193;-56
2021/12/27 10:06:32;;;;;;;9.73;6.90;;;6.20;1.00;;;;;;5085132;28;20273;-57
2021/12/27 10:09:04;;;;;;;7.10;4.90;;;7.70;99.90;;;;;;5082578;28;20197;-59
2021/12/27 10:11:40;;;;;;;5.70;4.27;;;12.10;1.00;;;;;;5066596;28;20259;-58
2021/12/27 10:14:08;;;;;;;12.50;7.53;;;12.90;99.90;;;;;;5065078;28;20210;-58
2021/12/27 10:16:42;;;;;;;5.43;4.70;;;12.40;99.90;;;;;;5080449;28;20190;-58
2021/12/27 10:19:11;;;;;;;5.87;4.87;;;10.70;1.00;;;;;;5064151;28;20194;-59
2021/12/27 10:21:43;;;;;;;5.17;4.27;;;9.80;3.20;;;;;;5082813;28;20241;-59
2021/12/27 10:24:20;;;;;;;6.33;4.10;;;11.00;1.00;;;;;;5082452;28;20186;-59
2021/12/27 10:26:49;;;;;;;4.05;3.65;;;14.90;99.90;;;;;;5082384;28;20197;-59
2021/12/27 10:29:18;;;;;;;4.18;3.58;;;15.80;99.90;;;;;;5083361;28;20197;-59
2021/12/27 10:32:06;;;;;;;5.22;3.58;;;15.80;99.90;;;;;;5082882;28;20294;-60
2021/12/27 10:34:38;;;;;;;6.00;3.58;;;17.60;99.90;;;;;;5065713;28;20194;-59
2021/12/27 10:37:24;;;;;;;3.50;3.20;;;18.50;99.90;;;;;;5088347;28;20198;-59
2021/12/27 10:40:07;;;;;;;3.05;2.75;;;19.20;99.90;;;;;;5067901;28;20194;-60
2021/12/27 10:42:40;;;;;;;3.63;3.28;;;18.80;99.90;;;;;;5085101;28;20631;-60
2021/12/27 10:45:11;;;;;;;4.95;3.40;;;18.20;99.90;;;;;;5070532;28;20233;-60
2021/12/27 10:47:46;;;;;;;3.75;3.45;;;18.20;99.90;;;;;;5088141;28;20237;-59
2021/12/27 10:50:22;;;;;;;4.07;2.92;;;18.80;99.90;;;;;;5090604;28;20213;-60
2021/12/27 10:53:05;;;;;;;5.25;3.83;;;19.70;99.90;;;;;;5092046;28;20214;-60
2021/12/27 10:55:38;;;;;;;4.10;3.28;;;20.00;99.90;;;;;;5091113;28;20189;-60
2021/12/27 10:58:25;;;;;;;4.10;3.30;;;19.90;99.90;;;;;;5091541;28;20186;-60
2021/12/27 11:01:07;;;;;;;4.00;3.60;;;18.60;99.90;;;;;;5089332;28;20236;-60
2021/12/27 11:03:41;;;;;;;4.15;3.35;;;17.00;99.90;;;;;;5089629;28;20205;-60
2021/12/27 11:06:10;;;;;;;6.68;5.40;;;14.50;99.90;;;;;;5070042;28;20430;-60
2021/12/27 11:08:39;;;;;;;4.30;3.90;;;12.30;99.90;;;;;;5080385;28;20198;-60
2021/12/27 11:11:06;;;;;;;5.13;4.35;;;11.00;1.00;;;;;;5082777;28;20213;-60
2021/12/27 11:13:34;;;;;;;5.30;4.03;;;10.20;1.00;;;;;;5085540;28;20661;-59
2021/12/27 11:16:02;;;;;;;4.73;4.13;;;9.70;99.90;;;;;;5082836;28;20199;-59
2021/12/27 11:18:29;;;;;;;4.47;3.87;;;9.30;99.90;;;;;;5081648;28;20209;-59
2021/12/27 11:20:59;;;;;;;4.80;4.30;;;8.80;1.00;;;;;;5082567;28;20229;-59
2021/12/27 11:23:27;;;;;;;5.10;4.60;;;8.50;1.00;;;;;;5085541;28;20508;-59
2021/12/27 11:26:10;;;;;;;6.23;5.50;;;8.50;1.00;;;;;;5080206;28;20201;-59
2021/12/27 11:28:40;;;;;;;6.30;5.53;;;8.60;1.00;;;;;;5082521;28;20248;-59
2021/12/27 11:31:24;;;;;;;4.60;4.17;;;8.40;1.00;;;;;;5066381;28;21194;-59
2021/12/27 11:33:54;;;;;;;5.60;4.63;;;8.50;1.00;;;;;;5076631;28;20213;-59
2021/12/27 11:36:24;;;;;;;6.10;5.07;;;8.40;1.00;;;;;;5080198;28;20190;-59
2021/12/27 11:38:51;;;;;;;5.93;4.70;;;8.30;1.00;;;;;;5076419;28;20190;-59
2021/12/27 11:41:26;;;;;;;5.70;4.70;;;8.20;1.00;;;;;;5078064;28;20202;-59
2021/12/27 11:43:58;;;;;;;4.77;4.00;;;8.10;1.00;;;;;;5081675;28;20209;-60
2021/12/27 11:46:28;;;;;;;5.00;4.17;;;8.30;1.00;;;;;;5083869;28;20597;-59
2021/12/27 11:48:59;;;;;;;4.23;3.83;;;8.30;1.00;;;;;;5080364;28;20198;-59
2021/12/27 11:51:35;;;;;;;4.90;4.13;;;8.50;1.00;;;;;;5087970;28;20199;-59
2021/12/27 11:54:04;;;;;;;5.00;4.23;;;8.60;1.00;;;;;;5082940;28;20661;-59
2021/12/27 11:56:37;;;;;;;4.53;4.00;;;8.60;1.00;;;;;;5080810;28;20214;-59
2021/12/27 11:59:22;;;;;;;5.37;3.83;;;8.80;1.00;;;;;;5082685;28;20294;-59
2021/12/27 12:01:51;;;;;;;6.63;4.13;;;8.90;1.00;;;;;;5081788;28;20733;-59
2021/12/27 12:04:41;;;;;;;4.77;3.83;;;8.90;1.00;;;;;;5077701;28;21105;-59
2021/12/27 12:07:09;;;;;;;5.47;4.50;;;9.00;1.00;;;;;;5078723;28;20714;-59
2021/12/27 12:09:49;;;;;;;6.83;4.17;;;9.00;1.00;;;;;;5053884;28;20205;-59
2021/12/27 12:12:16;;;;;;;5.83;3.80;;;9.00;1.00;;;;;;5083549;28;20221;-59
2021/12/27 12:15:05;;;;;;;5.30;4.03;;;8.90;1.00;;;;;;5079540;28;20189;-59
2021/12/27 12:17:40;;;;;;;6.50;3.90;;;8.60;1.00;;;;;;5065969;28;20212;-59
2021/12/27 12:20:28;;;;;;;5.17;4.20;;;8.40;1.00;;;;;;5080236;28;20230;-59
2021/12/27 12:23:09;;;;;;;5.23;4.47;;;8.40;1.00;;;;;;5083066;28;20186;-59
2021/12/27 12:25:38;;;;;;;7.57;6.83;;;8.30;1.00;;;;;;5063942;28;20227;-60
2021/12/27 12:28:10;;;;;;;9.67;6.30;;;8.30;1.00;;;;;;5082514;28;20194;-59
2021/12/27 12:30:45;;;;;;;5.90;3.53;;;8.30;1.00;;;;;;5081270;28;20281;-59
2021/12/27 12:33:17;;;;;;;4.73;4.07;;;8.30;1.00;;;;;;5063811;28;20605;-59
2021/12/27 12:35:49;;;;;;;5.97;4.97;;;8.20;1.00;;;;;;5083312;28;21957;-59
2021/12/27 12:38:33;;;;;;;6.00;4.80;;;8.20;1.00;;;;;;5063847;28;20611;-57
2021/12/27 12:41:15;;;;;;;4.47;4.07;;;8.20;1.00;;;;;;5082615;28;20194;-59
2021/12/27 12:43:45;;;;;;;5.43;4.00;;;8.30;1.00;;;;;;5072702;28;20248;-60
2021/12/27 12:46:17;;;;;;;5.57;4.00;;;8.50;1.00;;;;;;5091247;28;20178;-60
2021/12/27 12:49:01;;;;;;;5.60;4.30;;;8.50;1.00;;;;;;5082038;28;20214;-60
2021/12/27 12:52:00;;;;;;;7.20;3.90;;;8.50;1.00;;;;;;5065927;28;20205;-58
2021/12/27 12:54:32;;;;;;;5.27;4.27;;;8.40;1.00;;;;;;5080973;28;20285;-58
2021/12/27 12:57:05;;;;;;;4.67;4.17;;;8.40;1.00;;;;;;5064691;28;20194;-58
2021/12/27 12:59:35;;;;;;;6.73;4.30;;;8.30;1.00;;;;;;5082320;28;20269;-59
2021/12/27 13:02:12;;;;;;;5.40;4.10;;;8.20;8.00;;;;;;5066546;28;20234;-59
2021/12/27 13:04:58;;;;;;;5.43;4.63;;;8.20;27.30;;;;;;5082695;28;20260;-58